createdAt,value
2024-05-09T00:00:38.974Z,13.27
2024-05-09T00:03:10.583Z,13.15
2024-05-09T00:05:45.182Z,13.34
2024-05-09T00:08:17.507Z,13.47
2024-05-09T00:10:45.445Z,13.33
2024-05-09T00:13:14.179Z,13.20
2024-05-09T00:15:45.022Z,13.83
2024-05-09T00:18:13.294Z,14.06
2024-05-09T00:20:44.144Z,13.66
2024-05-09T00:23:12.887Z,13.48
2024-05-09T00:25:43.013Z,13.06
2024-05-09T00:28:13.833Z,13.16
2024-05-09T00:30:43.138Z,13.21
2024-05-09T00:33:13.313Z,13.08
2024-05-09T00:35:44.429Z,12.93
2024-05-09T00:38:12.081Z,12.95
2024-05-09T00:40:42.079Z,12.76
2024-05-09T00:43:12.429Z,12.53
2024-05-09T00:45:41.344Z,12.47
2024-05-09T00:48:10.566Z,12.37
2024-05-09T00:50:41.208Z,12.29
2024-05-09T00:53:12.983Z,12.43
2024-05-09T00:55:40.403Z,12.62
2024-05-09T00:58:09.605Z,12.68
2024-05-09T01:00:44.423Z,12.64
2024-05-09T01:03:13.621Z,12.93
2024-05-09T01:05:48.783Z,12.67
2024-05-09T01:08:16.410Z,12.61
2024-05-09T01:10:46.110Z,12.79
2024-05-09T01:13:16.195Z,12.57
2024-05-09T01:15:44.089Z,12.43
2024-05-09T01:18:19.354Z,12.80
2024-05-09T01:20:48.597Z,12.47
2024-05-09T01:23:18.745Z,12.52
2024-05-09T01:25:47.561Z,12.60
2024-05-09T01:28:15.449Z,12.31
2024-05-09T01:30:43.347Z,12.20
2024-05-09T01:33:12.725Z,12.41
2024-05-09T01:35:42.674Z,12.28
2024-05-09T01:38:11.284Z,12.39
2024-05-09T01:40:40.271Z,12.31
2024-05-09T01:43:10.465Z,12.20
2024-05-09T01:45:39.447Z,12.23
2024-05-09T01:48:08.315Z,12.23
2024-05-09T01:50:40.156Z,12.49
2024-05-09T01:53:10.975Z,12.57
2024-05-09T01:55:39.758Z,12.25
2024-05-09T01:58:08.563Z,12.25
2024-05-09T02:00:40.494Z,12.44
2024-05-09T02:03:12.704Z,12.37
2024-05-09T02:05:43.462Z,12.22
2024-05-09T02:08:15.589Z,12.63
2024-05-09T02:10:43.745Z,12.70
2024-05-09T02:13:11.841Z,12.60
2024-05-09T02:15:42.789Z,12.62
2024-05-09T02:18:11.711Z,12.75
2024-05-09T02:20:39.718Z,12.77
2024-05-09T02:23:08.966Z,12.80
2024-05-09T02:25:36.587Z,12.56
2024-05-09T02:28:04.230Z,12.88
2024-05-09T02:30:39.228Z,13.06
2024-05-09T02:33:13.559Z,13.31
2024-05-09T02:35:44.748Z,13.32
2024-05-09T02:38:15.229Z,13.14
2024-05-09T02:40:43.983Z,13.39
2024-05-09T02:43:13.214Z,13.04
2024-05-09T02:45:40.842Z,13.28
2024-05-09T02:48:13.658Z,13.33
2024-05-09T02:50:44.909Z,13.07
2024-05-09T02:53:12.713Z,13.16
2024-05-09T02:55:42.196Z,13.39
2024-05-09T02:58:10.369Z,13.27
2024-05-09T03:00:41.417Z,13.03
2024-05-09T03:03:13.199Z,13.06
2024-05-09T03:05:46.812Z,12.92
2024-05-09T03:08:15.089Z,12.76
2024-05-09T03:10:46.135Z,12.46
2024-05-09T03:13:15.303Z,12.61
2024-05-09T03:15:45.088Z,12.64
2024-05-09T03:18:13.440Z,12.52
2024-05-09T03:20:41.633Z,12.93
2024-05-09T03:23:10.610Z,13.10
2024-05-09T03:25:39.354Z,13.00
2024-05-09T03:28:08.386Z,13.40
2024-05-09T03:30:41.726Z,13.44
2024-05-09T03:33:14.891Z,13.56
2024-05-09T03:35:46.338Z,13.61
2024-05-09T03:38:15.195Z,13.70
2024-05-09T03:40:49.636Z,13.77
2024-05-09T03:43:19.088Z,13.29
2024-05-09T03:45:49.090Z,13.32
2024-05-09T03:48:17.049Z,13.13
2024-05-09T03:50:45.028Z,13.04
2024-05-09T03:53:13.475Z,12.89
2024-05-09T03:55:41.783Z,13.00
2024-05-09T03:58:09.568Z,13.15
2024-05-09T04:00:39.494Z,13.17
2024-05-09T04:03:10.236Z,13.19
2024-05-09T04:05:41.089Z,13.25
2024-05-09T04:08:09.508Z,13.15
2024-05-09T04:10:36.791Z,13.29
2024-05-09T04:13:04.324Z,13.33
2024-05-09T04:15:31.756Z,13.36
2024-05-09T04:17:59.732Z,13.36
2024-05-09T04:20:37.383Z,13.34
2024-05-09T04:23:08.700Z,13.27
2024-05-09T04:25:36.352Z,13.02
2024-05-09T04:28:03.545Z,13.09
2024-05-09T04:30:37.562Z,12.80
2024-05-09T04:33:09.211Z,12.72
2024-05-09T04:35:39.419Z,12.77
2024-05-09T04:38:06.733Z,12.41
2024-05-09T04:40:36.925Z,12.67
2024-05-09T04:43:17.202Z,12.58
2024-05-09T04:45:44.947Z,12.54
2024-05-09T04:48:14.237Z,12.63
2024-05-09T04:50:42.092Z,12.58
2024-05-09T04:53:10.861Z,12.42
2024-05-09T04:55:38.778Z,12.38
2024-05-09T04:58:10.786Z,12.50
2024-05-09T05:00:40.699Z,12.53
2024-05-09T05:03:11.549Z,12.49
2024-05-09T05:05:42.070Z,12.50
2024-05-09T05:08:12.588Z,12.58
2024-05-09T05:10:40.524Z,12.47
2024-05-09T05:13:10.969Z,12.32
2024-05-09T05:15:39.374Z,12.73
2024-05-09T05:18:07.610Z,12.89
2024-05-09T05:20:37.885Z,12.49
2024-05-09T05:23:12.468Z,12.46
2024-05-09T05:25:40.659Z,12.84
2024-05-09T05:28:11.258Z,12.64
2024-05-09T05:30:42.055Z,12.89
2024-05-09T05:33:13.912Z,12.89
2024-05-09T05:35:41.650Z,13.05
2024-05-09T05:38:09.972Z,12.74
2024-05-09T05:40:39.243Z,12.94
2024-05-09T05:43:08.847Z,13.08
2024-05-09T05:45:38.130Z,12.99
2024-05-09T05:48:07.830Z,12.75
2024-05-09T05:50:38.046Z,12.78
2024-05-09T05:53:07.696Z,12.77
2024-05-09T05:55:39.552Z,12.92
2024-05-09T05:58:13.294Z,12.70
2024-05-09T06:00:42.094Z,12.77
2024-05-09T06:03:11.713Z,12.66
2024-05-09T06:05:42.404Z,12.47
2024-05-09T06:08:09.828Z,12.58
2024-05-09T06:10:40.063Z,12.33
2024-05-09T06:13:09.436Z,12.65
2024-05-09T06:15:40.446Z,12.50
2024-05-09T06:18:08.950Z,12.62
2024-05-09T06:20:40.588Z,12.93
2024-05-09T06:23:09.494Z,12.89
2024-05-09T06:25:38.003Z,12.68
2024-05-09T06:28:05.647Z,12.64
2024-05-09T06:33:10.818Z,12.76
2024-05-09T06:35:40.816Z,12.92
2024-05-09T06:38:09.931Z,12.78
2024-05-09T06:41:01.220Z,12.89
2024-05-09T06:43:29.997Z,12.87
2024-05-09T06:45:57.296Z,12.97
2024-05-09T06:48:25.704Z,12.90
2024-05-09T06:50:53.201Z,13.10
2024-05-09T06:53:21.468Z,13.45
2024-05-09T06:55:49.003Z,13.72
2024-05-09T06:58:17.766Z,13.25
2024-05-09T07:00:45.132Z,13.63
2024-05-09T07:03:15.846Z,13.52
2024-05-09T07:05:45.987Z,13.59
2024-05-09T07:08:14.088Z,14.13
2024-05-09T07:10:43.425Z,13.92
2024-05-09T07:13:12.559Z,13.50
2024-05-09T07:15:41.686Z,13.84
2024-05-09T07:18:14.322Z,13.76
2024-05-09T07:20:42.455Z,13.94
2024-05-09T07:23:10.099Z,13.87
2024-05-09T07:25:38.228Z,13.78
2024-05-09T07:28:17.366Z,13.82
2024-05-09T07:30:45.122Z,14.30
2024-05-09T07:33:23.109Z,14.22
2024-05-09T07:35:52.483Z,14.07
2024-05-09T07:38:20.367Z,14.00
2024-05-09T07:40:47.848Z,13.85
2024-05-09T07:43:15.305Z,14.04
2024-05-09T07:45:51.256Z,14.15
2024-05-09T07:53:40.570Z,14.35
2024-05-09T07:56:15.870Z,14.49
2024-05-09T07:58:45.461Z,14.77
2024-05-09T08:01:15.917Z,14.75
2024-05-09T08:03:43.485Z,15.05
2024-05-09T08:06:12.014Z,14.48
2024-05-09T08:08:40.842Z,14.75
2024-05-09T08:11:08.619Z,14.75
2024-05-09T08:13:38.891Z,14.83
2024-05-09T08:16:08.475Z,15.07
2024-05-09T08:18:35.937Z,15.12
2024-05-09T08:21:03.426Z,14.98
2024-05-09T08:23:33.729Z,15.35
2024-05-09T08:26:02.298Z,15.28
2024-05-09T08:28:30.125Z,15.72
2024-05-09T08:30:58.587Z,15.37
2024-05-09T08:33:26.108Z,15.67
2024-05-09T08:35:53.739Z,15.44
2024-05-09T08:38:22.918Z,15.79
2024-05-09T08:40:50.455Z,15.56
2024-05-09T08:43:18.012Z,15.88
2024-05-09T08:45:45.744Z,16.02
2024-05-09T08:48:15.192Z,16.00
2024-05-09T08:50:44.787Z,15.96
2024-05-09T08:53:14.180Z,15.96
2024-05-09T08:55:43.809Z,15.88
2024-05-09T08:58:18.263Z,15.91
2024-05-09T09:00:46.380Z,15.90
2024-05-09T09:03:33.306Z,16.03
2024-05-09T09:06:09.240Z,15.79
2024-05-09T09:08:43.875Z,15.71
2024-05-09T09:11:12.884Z,15.98
2024-05-09T09:13:43.027Z,16.29
2024-05-09T09:16:10.809Z,16.33
2024-05-09T09:18:38.908Z,16.37
2024-05-09T09:21:12.871Z,16.29
2024-05-09T09:23:40.572Z,16.50
2024-05-09T09:26:07.919Z,15.03
2024-05-09T09:28:38.947Z,15.43
2024-05-09T09:31:08.156Z,15.99
2024-05-09T09:33:36.178Z,16.15
2024-05-09T09:36:06.963Z,16.23
2024-05-09T09:38:38.532Z,16.47
2024-05-09T09:41:07.392Z,15.97
2024-05-09T09:43:43.331Z,15.42
2024-05-09T09:46:12.614Z,15.65
2024-05-09T09:48:41.102Z,15.87
2024-05-09T09:51:11.299Z,16.14
2024-05-09T09:53:38.767Z,16.05
2024-05-09T09:56:08.127Z,15.77
2024-05-09T09:58:35.432Z,15.86
2024-05-09T10:01:05.659Z,16.15
2024-05-09T10:03:33.664Z,16.29
2024-05-09T10:06:01.717Z,16.26
2024-05-09T10:08:30.186Z,16.31
2024-05-09T10:10:57.577Z,16.42
2024-05-09T10:13:33.310Z,16.62
2024-05-09T10:16:08.730Z,16.09
2024-05-09T10:18:38.574Z,16.16
2024-05-09T10:21:19.426Z,16.48
2024-05-09T10:23:59.587Z,16.22
2024-05-09T10:26:39.151Z,16.08
2024-05-09T10:29:14.169Z,16.40
2024-05-09T10:31:42.951Z,16.34
2024-05-09T10:34:22.245Z,16.43
2024-05-09T10:36:52.991Z,16.57
2024-05-09T10:39:25.818Z,16.87
2024-05-09T10:41:53.888Z,17.02
2024-05-09T10:44:25.485Z,16.64
2024-05-09T10:46:55.511Z,16.98
2024-05-09T10:49:23.422Z,16.88
2024-05-09T10:51:50.905Z,17.12
2024-05-09T10:54:20.102Z,17.16
2024-05-09T10:56:55.437Z,17.37
2024-05-09T10:59:23.322Z,17.47
2024-05-09T11:01:51.620Z,17.61
2024-05-09T11:04:19.247Z,17.72
2024-05-09T11:06:49.676Z,17.88
2024-05-09T11:09:17.732Z,17.54
2024-05-09T11:11:45.586Z,17.84
2024-05-09T11:14:13.541Z,16.99
2024-05-09T11:16:41.871Z,17.77
2024-05-09T11:19:15.836Z,18.00
2024-05-09T11:21:43.373Z,17.92
2024-05-09T11:24:12.092Z,17.77
2024-05-09T11:26:41.597Z,17.78
2024-05-09T11:29:11.131Z,17.90
2024-05-09T11:31:48.643Z,18.03
2024-05-09T11:34:19.100Z,18.13
2024-05-09T11:36:46.567Z,18.54
2024-05-09T11:39:14.122Z,17.67
2024-05-09T11:41:43.964Z,18.51
2024-05-09T11:44:10.859Z,18.86
2024-05-09T11:46:38.161Z,18.96
2024-05-09T11:49:05.383Z,18.07
2024-05-09T11:51:33.704Z,17.83
2024-05-09T11:54:01.366Z,17.51
2024-05-09T11:56:28.693Z,17.95
2024-05-09T11:58:56.732Z,18.63
2024-05-09T12:01:27.532Z,19.15
2024-05-09T12:03:56.147Z,19.14
2024-05-09T12:06:23.268Z,19.72
2024-05-09T12:08:53.172Z,20.00
2024-05-09T12:11:20.609Z,19.87
2024-05-09T12:13:48.129Z,18.51
2024-05-09T12:16:15.884Z,18.96
2024-05-09T12:18:43.177Z,19.47
2024-05-09T12:21:11.529Z,19.70
2024-05-09T12:23:38.430Z,19.72
2024-05-09T12:26:06.267Z,20.11
2024-05-09T12:28:34.897Z,19.95
2024-05-09T12:31:03.359Z,19.81
2024-05-09T12:33:31.243Z,19.84
2024-05-09T12:35:59.100Z,20.19
2024-05-09T12:38:26.521Z,19.95
2024-05-09T12:40:54.559Z,19.81
2024-05-09T12:43:22.659Z,20.03
2024-05-09T12:45:50.700Z,19.53
2024-05-09T12:48:18.126Z,18.73
2024-05-09T12:50:48.443Z,19.24
2024-05-09T12:53:15.785Z,19.13
2024-05-09T12:55:53.463Z,19.69
2024-05-09T12:58:27.303Z,19.80
2024-05-09T13:00:54.783Z,19.69
2024-05-09T13:03:23.264Z,19.69
2024-05-09T13:05:51.275Z,19.97
2024-05-09T13:08:19.626Z,19.83
2024-05-09T13:10:48.205Z,20.07
2024-05-09T13:13:16.354Z,19.86
2024-05-09T13:15:43.920Z,20.31
2024-05-09T13:18:10.924Z,19.76
2024-05-09T13:20:39.291Z,19.69
2024-05-09T13:23:08.121Z,20.04
2024-05-09T13:25:37.089Z,19.99
2024-05-09T13:28:05.970Z,19.92
2024-05-09T13:30:39.721Z,19.64
2024-05-09T13:33:13.255Z,20.16
2024-05-09T13:35:50.552Z,20.51
2024-05-09T13:38:19.154Z,20.35
2024-05-09T13:40:47.336Z,20.65
2024-05-09T13:43:15.080Z,20.85
2024-05-09T13:45:43.424Z,21.06
2024-05-09T13:48:10.724Z,21.27
2024-05-09T13:50:38.935Z,21.55
2024-05-09T13:53:07.468Z,21.64
2024-05-09T13:55:37.733Z,21.31
2024-05-09T13:58:05.876Z,21.68
2024-05-09T14:03:09.563Z,22.22
2024-05-09T14:05:40.281Z,21.55
2024-05-09T14:08:09.158Z,21.72
2024-05-09T14:10:36.598Z,22.08
2024-05-09T14:13:04.824Z,22.32
2024-05-09T14:15:33.456Z,22.43
2024-05-09T14:18:03.637Z,22.26
2024-05-09T14:20:32.874Z,21.15
2024-05-09T14:23:01.038Z,21.71
2024-05-09T14:25:32.424Z,22.04
2024-05-09T14:28:01.482Z,22.07
2024-05-09T14:30:36.062Z,22.36
2024-05-09T14:33:07.371Z,22.26
2024-05-09T14:35:36.101Z,22.09
2024-05-09T14:38:04.931Z,22.07
2024-05-09T14:40:40.664Z,22.85
2024-05-09T14:43:15.307Z,23.11
2024-05-09T14:45:44.190Z,22.70
2024-05-09T14:48:13.527Z,22.52
2024-05-09T14:50:41.276Z,22.41
2024-05-09T14:53:09.898Z,22.70
2024-05-09T14:55:41.547Z,23.08
2024-05-09T14:58:10.858Z,23.05
2024-05-09T15:00:44.084Z,22.90
2024-05-09T15:03:21.100Z,23.12
2024-05-09T15:05:50.180Z,22.81
2024-05-09T15:08:18.614Z,23.11
2024-05-09T15:10:47.020Z,23.30
2024-05-09T15:13:16.870Z,22.70
2024-05-09T15:15:46.130Z,23.66
2024-05-09T15:18:14.735Z,23.18
2024-05-09T15:20:44.292Z,22.98
2024-05-09T15:23:13.179Z,22.62
2024-05-09T15:25:41.148Z,23.65
2024-05-09T15:28:08.921Z,23.83
2024-05-09T15:30:37.676Z,23.65
2024-05-09T15:33:07.697Z,23.93
2024-05-09T15:35:36.331Z,23.66
2024-05-09T15:38:04.916Z,23.78
2024-05-09T15:40:38.985Z,23.73
2024-05-09T15:43:09.596Z,23.67
2024-05-09T15:45:38.571Z,24.03
2024-05-09T15:48:08.116Z,23.50
2024-05-09T15:50:39.950Z,23.72
2024-05-09T15:53:12.890Z,23.70
2024-05-09T15:55:42.540Z,23.50
2024-05-09T15:58:10.173Z,23.17
2024-05-09T16:00:41.533Z,23.19
2024-05-09T16:03:12.634Z,23.41
2024-05-09T16:05:41.564Z,23.22
2024-05-09T16:08:09.618Z,23.37
2024-05-09T16:10:38.775Z,23.40
2024-05-09T16:13:06.856Z,23.82
2024-05-09T16:15:34.991Z,23.69
2024-05-09T16:18:03.423Z,23.97
2024-05-09T16:20:39.019Z,24.42
2024-05-09T16:23:10.571Z,24.12
2024-05-09T16:25:40.821Z,24.18
2024-05-09T16:28:10.642Z,23.96
2024-05-09T16:30:39.749Z,24.15
2024-05-09T16:33:10.271Z,23.86
2024-05-09T16:35:41.704Z,23.15
2024-05-09T16:38:09.694Z,22.99
2024-05-09T16:40:40.370Z,22.84
2024-05-09T16:43:10.332Z,22.78
2024-05-09T16:45:45.000Z,22.96
2024-05-09T16:48:13.546Z,23.46
2024-05-09T16:50:43.768Z,23.74
2024-05-09T16:53:11.822Z,23.21
2024-05-09T16:55:39.201Z,22.87
2024-05-09T16:58:07.990Z,22.73
2024-05-09T17:00:41.257Z,23.12
2024-05-09T17:03:13.264Z,23.44
2024-05-09T17:05:42.996Z,23.56
2024-05-09T17:08:10.597Z,23.28
2024-05-09T17:10:38.073Z,23.79
2024-05-09T17:13:08.004Z,23.80
2024-05-09T17:15:38.602Z,23.30
2024-05-09T17:18:08.326Z,24.02
2024-05-09T17:20:37.568Z,24.42
2024-05-09T17:23:06.312Z,23.63
2024-05-09T17:25:34.254Z,23.85
2024-05-09T17:28:02.116Z,22.90
2024-05-09T17:30:36.173Z,23.09
2024-05-09T17:33:11.606Z,23.57
2024-05-09T17:35:40.561Z,23.32
2024-05-09T17:38:08.389Z,23.07
2024-05-09T17:40:38.566Z,23.19
2024-05-09T17:43:08.995Z,23.09
2024-05-09T17:45:39.234Z,22.48
2024-05-09T17:50:37.277Z,22.29
2024-05-09T17:53:08.321Z,22.97
2024-05-09T17:55:36.222Z,22.21
2024-05-09T17:58:06.152Z,22.56
2024-05-09T18:00:38.903Z,22.91
2024-05-09T18:03:13.421Z,22.57
2024-05-09T18:05:42.712Z,22.41
2024-05-09T18:08:11.107Z,22.20
2024-05-09T18:10:42.174Z,22.24
2024-05-09T18:13:11.066Z,21.93
2024-05-09T18:15:39.711Z,21.84
2024-05-09T18:18:08.138Z,21.86
2024-05-09T18:20:42.308Z,21.82
2024-05-09T18:23:32.537Z,21.51
2024-05-09T18:26:00.264Z,21.45
2024-05-09T18:28:30.489Z,20.87
2024-05-09T18:30:57.900Z,20.39
2024-05-09T18:33:26.951Z,20.23
2024-05-09T18:35:54.409Z,20.31
2024-05-09T18:38:22.183Z,20.37
2024-05-09T18:40:50.144Z,20.20
2024-05-09T18:43:18.101Z,20.19
2024-05-09T18:45:46.722Z,19.57
2024-05-09T18:48:14.713Z,19.63
2024-05-09T18:50:42.358Z,19.65
2024-05-09T18:53:11.659Z,19.48
2024-05-09T18:55:41.379Z,19.72
2024-05-09T18:58:09.589Z,19.64
2024-05-09T19:00:42.651Z,19.61
2024-05-09T19:03:14.863Z,19.12
2024-05-09T19:05:44.261Z,18.55
2024-05-09T19:08:13.441Z,18.96
2024-05-09T19:10:43.726Z,18.85
2024-05-09T19:13:14.501Z,18.76
2024-05-09T19:15:44.798Z,18.74
2024-05-09T19:18:14.444Z,18.53
2024-05-09T19:20:42.764Z,18.77
2024-05-09T19:23:13.582Z,18.32
2024-05-09T19:25:41.236Z,18.25
2024-05-09T19:28:08.923Z,18.61
2024-05-09T19:30:40.906Z,18.38
2024-05-09T19:33:11.431Z,18.40
2024-05-09T19:35:42.192Z,18.51
2024-05-09T19:38:12.668Z,18.51
2024-05-09T19:40:40.230Z,18.73
2024-05-09T19:43:09.010Z,18.66
2024-05-09T19:45:36.870Z,18.17
2024-05-09T19:48:06.319Z,18.39
2024-05-09T19:50:42.477Z,18.04
2024-05-09T19:53:14.927Z,18.54
2024-05-09T19:55:42.418Z,18.70
2024-05-09T19:58:10.816Z,18.58
2024-05-09T20:00:40.778Z,18.48
2024-05-09T20:03:12.422Z,18.11
2024-05-09T20:05:41.821Z,18.10
2024-05-09T20:08:12.327Z,17.98
2024-05-09T20:10:40.073Z,18.05
2024-05-09T20:13:08.533Z,17.95
2024-05-09T20:15:37.228Z,18.13
2024-05-09T20:18:06.979Z,18.19
2024-05-09T20:20:39.402Z,18.07
2024-05-09T20:23:10.552Z,17.80
2024-05-09T20:25:38.606Z,17.96
2024-05-09T20:28:07.130Z,18.18
2024-05-09T20:30:36.668Z,17.89
2024-05-09T20:33:08.652Z,17.84
2024-05-09T20:35:37.957Z,17.94
2024-05-09T20:38:06.158Z,18.24
2024-05-09T20:40:42.365Z,18.17
2024-05-09T20:43:12.885Z,18.11
2024-05-09T20:45:41.029Z,18.20
2024-05-09T20:48:09.328Z,17.89
2024-05-09T20:50:40.841Z,17.87
2024-05-09T20:53:13.741Z,18.07
2024-05-09T20:55:43.380Z,17.73
2024-05-09T20:58:11.148Z,17.85
2024-05-09T21:00:43.599Z,17.89
2024-05-09T21:03:14.768Z,17.67
2024-05-09T21:05:44.184Z,17.81
2024-05-09T21:08:11.952Z,17.79
2024-05-09T21:10:39.761Z,17.90
2024-05-09T21:13:08.606Z,18.02
2024-05-09T21:15:36.629Z,17.70
2024-05-09T21:18:05.839Z,17.89
2024-05-09T21:20:36.157Z,17.85
2024-05-09T21:23:03.868Z,17.81
2024-05-09T21:25:32.137Z,17.77
2024-05-09T21:28:00.358Z,17.99
2024-05-09T21:30:37.531Z,18.00
2024-05-09T21:33:10.954Z,17.68
2024-05-09T21:35:40.257Z,18.09
2024-05-09T21:38:07.949Z,18.21
2024-05-09T21:40:37.000Z,18.28
2024-05-09T21:43:08.559Z,18.24
2024-05-09T21:45:36.269Z,17.89
2024-05-09T21:48:04.568Z,18.35
2024-05-09T21:50:42.150Z,18.11
2024-05-09T21:53:11.928Z,18.31
2024-05-09T21:55:39.716Z,18.11
2024-05-09T21:58:07.713Z,18.36
2024-05-09T22:00:39.090Z,18.44
2024-05-09T22:03:08.777Z,18.30
2024-05-09T22:05:37.865Z,18.43
2024-05-09T22:08:05.891Z,18.35
2024-05-09T22:10:35.868Z,18.32
2024-05-09T22:13:08.553Z,18.16
2024-05-09T22:15:38.489Z,18.04
2024-05-09T22:18:08.038Z,18.28
2024-05-09T22:20:40.116Z,17.99
2024-05-09T22:23:08.475Z,18.28
2024-05-09T22:25:37.240Z,18.20
2024-05-09T22:28:05.259Z,17.87
2024-05-09T22:30:37.483Z,17.61
2024-05-09T22:33:07.874Z,17.57
2024-05-09T22:35:36.507Z,17.61
2024-05-09T22:38:04.439Z,17.47
2024-05-09T22:40:41.997Z,17.31
2024-05-09T22:43:23.947Z,17.24
2024-05-09T22:46:12.353Z,17.48
2024-05-09T22:48:45.424Z,17.64
2024-05-09T22:51:13.306Z,17.84
2024-05-09T22:53:41.052Z,18.00
2024-05-09T22:56:08.852Z,17.99
2024-05-09T22:58:36.738Z,17.83
2024-05-09T23:01:04.188Z,18.01
2024-05-09T23:03:33.588Z,18.15
2024-05-09T23:06:01.206Z,18.15
2024-05-09T23:08:31.398Z,17.80
2024-05-09T23:10:59.033Z,17.35
2024-05-09T23:13:28.097Z,17.26
2024-05-09T23:15:55.449Z,17.14
2024-05-09T23:18:22.989Z,17.04
2024-05-09T23:20:51.129Z,16.79
2024-05-09T23:23:19.932Z,16.63
2024-05-09T23:25:47.636Z,16.76
2024-05-09T23:28:15.030Z,16.74
2024-05-09T23:30:42.509Z,16.97
2024-05-09T23:33:10.627Z,17.07
2024-05-09T23:35:38.876Z,17.06
2024-05-09T23:38:14.632Z,17.45
2024-05-09T23:40:43.008Z,17.40
2024-05-09T23:43:12.561Z,17.49
2024-05-09T23:45:40.858Z,17.35
2024-05-09T23:48:09.619Z,17.10
2024-05-09T23:50:39.207Z,17.25
2024-05-09T23:53:08.691Z,16.97
2024-05-09T23:55:38.121Z,17.13
2024-05-09T23:58:06.406Z,17.37
